page 4904 of 1004092 registered users

eBook PostsUsers

  1. 0can0input registered @ 2012-12-13 03:26:26, last login @ 2012-12-13 03:26:26
  2. 0crate4russia registered @ 2012-12-13 03:26:28, last login @ 2012-12-13 03:26:28
  3. 0pimplebone32 registered @ 2012-12-13 03:27:08, last login @ 2012-12-13 03:27:08
  4. 0femaleyak40 registered @ 2012-12-13 03:27:24, last login @ 2012-12-13 03:27:24
  5. 0drink76cap registered @ 2012-12-13 03:27:34, last login @ 2012-12-13 03:27:34
  6. 0barber8drill registered @ 2012-12-13 03:28:21, last login @ 2012-12-13 03:28:21
  7. 0gym8north registered @ 2012-12-13 03:30:21, last login @ 2012-12-13 03:30:21
  8. 0title37mallet registered @ 2012-12-13 03:31:02, last login @ 2012-12-13 03:31:02
  9. 0degree87slip registered @ 2012-12-13 03:32:45, last login @ 2012-12-13 03:32:45
  10. 0maracaglove3 registered @ 2012-12-13 03:35:08, last login @ 2012-12-13 03:35:08
  11. 0seatemple29 registered @ 2012-12-13 03:36:00, last login @ 2012-12-13 03:36:00
  12. 0random27crook registered @ 2012-12-13 03:36:22, last login @ 2012-12-13 03:36:22
  13. 0coast1neon registered @ 2012-12-13 03:36:43, last login @ 2012-12-13 03:36:43
  14. 0biteerror46 registered @ 2012-12-13 03:37:18, last login @ 2012-12-13 03:37:18
  15. 0soccer97rise registered @ 2012-12-13 03:37:31, last login @ 2012-12-13 03:37:31
  16. 0girdle6pond registered @ 2012-12-13 03:40:09, last login @ 2012-12-13 03:40:09
  17. 0emeryhot1 registered @ 2012-12-13 03:41:22, last login @ 2012-12-13 03:41:22
  18. 0bangle7reason registered @ 2012-12-13 03:45:40, last login @ 2012-12-13 03:45:40
  19. 0bowrake1 registered @ 2012-12-13 03:47:28, last login @ 2012-12-13 03:47:28
  20. 0pendomain7 registered @ 2012-12-13 03:53:00, last login @ 2012-12-13 03:53:00
  21. 0europe59deal registered @ 2012-12-13 03:54:17, last login @ 2012-12-13 03:54:17
  22. 0bottlehell71 registered @ 2012-12-13 03:57:39, last login @ 2012-12-13 03:57:39
  23. 0relish6seeder registered @ 2012-12-13 03:58:22, last login @ 2012-12-13 03:58:22
  24. 0combdrill45 registered @ 2012-12-13 04:00:31, last login @ 2012-12-13 04:00:31
  25. 0rate5sunday registered @ 2012-12-13 04:01:05, last login @ 2012-12-13 04:01:05
  26. 0altonote8 registered @ 2012-12-13 04:01:23, last login @ 2012-12-13 04:01:23
  27. 0river07brush registered @ 2012-12-13 04:02:26, last login @ 2012-12-13 04:02:26
  28. 0stitch33pond registered @ 2012-12-13 04:03:36, last login @ 2012-12-13 04:03:36
  29. 0pestlove79 registered @ 2012-12-13 04:05:09, last login @ 2012-12-13 04:05:09
  30. 0mirzam registered @ 2012-12-13 04:05:56, last login @ 2012-12-13 04:05:56
  31. 0goosegerman99 registered @ 2012-12-13 04:06:17, last login @ 2012-12-13 04:06:17
  32. 0brakecell26 registered @ 2012-12-13 04:06:59, last login @ 2012-12-13 04:06:59
  33. 0maid3bonsai registered @ 2012-12-13 04:07:04, last login @ 2012-12-13 04:07:04
  34. 0screen9candle registered @ 2012-12-13 04:08:11, last login @ 2012-12-13 04:08:11
  35. 0fifthvacuum4 registered @ 2012-12-13 04:11:20, last login @ 2012-12-13 04:11:20
  36. 0tune35crocus registered @ 2012-12-13 04:13:16, last login @ 2012-12-13 04:13:16
  37. 0rice8helen registered @ 2012-12-13 04:13:53, last login @ 2012-12-13 04:13:53
  38. 0honeyword9 registered @ 2012-12-13 04:14:55, last login @ 2012-12-13 04:14:55
  39. 0net97sense registered @ 2012-12-13 04:15:59, last login @ 2012-12-13 04:48:46
  40. 0librarose03 registered @ 2012-12-13 04:17:09, last login @ 2012-12-13 04:17:09
  41. 0valleyseat5 registered @ 2012-12-13 04:17:28, last login @ 2012-12-13 04:17:28
  42. 0indianame36 registered @ 2012-12-13 04:18:42, last login @ 2012-12-13 04:18:42
  43. 0sandsong5 registered @ 2012-12-13 04:21:43, last login @ 2012-12-13 04:21:43
  44. 0dollcopper98 registered @ 2012-12-13 04:22:36, last login @ 2012-12-13 04:22:36
  45. 0spark2angle registered @ 2012-12-13 04:24:59, last login @ 2012-12-13 04:24:59
  46. 0quartzpeony5 registered @ 2012-12-13 04:25:47, last login @ 2012-12-13 04:25:47
  47. 0tonguemint8 registered @ 2012-12-13 04:26:14, last login @ 2012-12-13 04:26:14
  48. 0flower4death registered @ 2012-12-13 04:27:28, last login @ 2012-12-13 04:27:28
  49. 0playnickel13 registered @ 2012-12-13 04:27:54, last login @ 2012-12-13 04:27:54
  50. 0fielddahlia5 registered @ 2012-12-13 04:28:12, last login @ 2012-12-13 04:28:12
  51. 0active25belief registered @ 2012-12-13 04:28:42, last login @ 2012-12-13 04:28:42
  52. 0gigigeGoveshy registered @ 2012-12-13 04:32:19, last login @ 2012-12-13 04:32:19
  53. 0cancer37face registered @ 2012-12-13 04:33:42, last login @ 2012-12-13 04:33:42
  54. 0zonemonkey12 registered @ 2012-12-13 04:34:18, last login @ 2012-12-13 04:34:18
  55. 0sgpddlgfi registered @ 2012-12-13 04:35:35, last login @ 2012-12-13 04:35:35
  56. 0wave3screw registered @ 2012-12-13 04:38:31, last login @ 2012-12-13 04:38:31
  57. 0puppy9crayon registered @ 2012-12-13 04:39:02, last login @ 2012-12-13 04:39:02
  58. 0tubasmash2 registered @ 2012-12-13 04:39:34, last login @ 2012-12-13 04:39:34
  59. 0BellmioneGrace registered @ 2012-12-13 04:39:59, last login @ 2012-12-13 04:39:59
  60. 0whipcheek48 registered @ 2012-12-13 04:40:10, last login @ 2012-12-13 04:40:10
  61. 0georgejoseph0 registered @ 2012-12-13 04:41:11, last login @ 2012-12-13 04:41:11
  62. 0giantsyrup50 registered @ 2012-12-13 04:44:23, last login @ 2012-12-13 04:44:23
  63. 0iconpull4 registered @ 2012-12-13 04:44:41, last login @ 2012-12-13 04:44:41
  64. 0dewbabies06 registered @ 2012-12-13 04:44:42, last login @ 2012-12-13 04:44:42
  65. 0motion4flare registered @ 2012-12-13 04:46:41, last login @ 2012-12-13 04:46:41
  66. 0belt63zoo registered @ 2012-12-13 04:47:30, last login @ 2012-12-13 04:47:30
  67. 0helmet5store registered @ 2012-12-13 04:47:36, last login @ 2012-12-13 04:47:36
  68. 0puma82death registered @ 2012-12-13 04:48:07, last login @ 2012-12-13 04:48:07
  69. 0olamsfemi registered @ 2012-12-13 04:49:38, last login @ 2012-12-13 04:49:38
  70. 0hawk49motion registered @ 2012-12-13 04:50:02, last login @ 2012-12-13 04:50:02
  71. 0jute6page registered @ 2012-12-13 04:50:38, last login @ 2012-12-13 04:50:38
  72. 0pgpgtgxmj registered @ 2012-12-13 04:51:15, last login @ 2012-12-13 04:51:15
  73. 0yoke42quilt registered @ 2012-12-13 04:51:49, last login @ 2012-12-13 04:51:49
  74. 0rulesound0 registered @ 2012-12-13 04:53:47, last login @ 2012-12-13 04:53:47
  75. 0moneycook90 registered @ 2012-12-13 04:54:07, last login @ 2012-12-13 04:54:07
  76. 0stem6spot registered @ 2012-12-13 04:54:53, last login @ 2012-12-13 04:54:53
  77. 0chance3fowl registered @ 2012-12-13 04:55:12, last login @ 2012-12-13 04:55:12
  78. 0cub21jumbo registered @ 2012-12-13 04:56:38, last login @ 2012-12-13 04:56:38
  79. 0bee51grip registered @ 2012-12-13 04:58:07, last login @ 2012-12-13 04:58:07
  80. 0polandhood8 registered @ 2012-12-13 04:58:14, last login @ 2012-12-13 04:58:14
  81. 0washer8pepper registered @ 2012-12-13 04:58:18, last login @ 2012-12-13 04:58:18
  82. 0capcall40 registered @ 2012-12-13 04:58:37, last login @ 2012-12-13 04:58:37
  83. 0greek85wool registered @ 2012-12-13 04:58:46, last login @ 2012-12-13 04:58:46
  84. 0candle5chord registered @ 2012-12-13 05:00:05, last login @ 2012-12-13 05:00:05
  85. 0paint83pvc registered @ 2012-12-13 05:02:33, last login @ 2012-12-13 05:02:33
  86. 0fine5tank registered @ 2012-12-13 05:03:42, last login @ 2012-12-13 05:03:42
  87. 0coffee77birch registered @ 2012-12-13 05:03:56, last login @ 2012-12-13 05:03:56
  88. 0edge4gallon registered @ 2012-12-13 05:04:06, last login @ 2012-12-13 05:04:06
  89. 0dry6dragon registered @ 2012-12-13 05:04:36, last login @ 2012-12-13 05:04:36
  90. 0closeferry47 registered @ 2012-12-13 05:04:39, last login @ 2012-12-13 05:04:39
  91. 0karen6guide registered @ 2012-12-13 05:05:24, last login @ 2012-12-13 05:05:24
  92. 0pond2rayon registered @ 2012-12-13 05:06:45, last login @ 2012-12-13 05:06:45
  93. 0bloodbroker5 registered @ 2012-12-13 05:07:15, last login @ 2012-12-13 05:07:15
  94. 0angle91girdle registered @ 2012-12-13 05:07:27, last login @ 2012-12-13 05:07:27
  95. 0browgirdle62 registered @ 2012-12-13 05:08:01, last login @ 2012-12-13 05:08:01
  96. 0minute4close registered @ 2012-12-13 05:08:25, last login @ 2012-12-13 05:08:25
  97. 0farmer0mother registered @ 2012-12-13 05:09:08, last login @ 2012-12-13 05:09:08
  98. 0bread58ankle registered @ 2012-12-13 05:12:06, last login @ 2012-12-13 05:12:06
  99. 0mail20court registered @ 2012-12-13 05:12:35, last login @ 2012-12-13 05:12:35
  100. 0drinkflood28 registered @ 2012-12-13 05:13:42, last login @ 2012-12-13 05:13:42
  101. 0saw8paul registered @ 2012-12-13 05:14:48, last login @ 2012-12-13 05:14:48

More...

[4914] [4913] [4912] [4911] [4910] [4909] [4908] [4907] [4906] [4905] [4904] [4903] [4902] [4901] [4900] [4899] [4898] [4897] [4896] [4895] ...[1]
Back to Top